Time;durP1;ratioP1;P1;durP2;ratioP2;P2;SDS_P1;SDS_P2;PMS_P1;PMS_P2;Temp;Humidity;BMP_temperature;BMP_pressure;BME280_temperature;BME280_humidity;BME280_pressure;Samples;Min_cycle;Max_cycle;Signal;HPM_P1;HPM_P2
2022/04/15 00:01:17;;;;;;;3.42;2.17;;;;;;;;;;5044544;28;20029;-75
2022/04/15 00:03:43;;;;;;;2.97;2.70;;;;;;;;;;5045695;28;20048;-74
2022/04/15 00:06:10;;;;;;;3.95;2.83;;;;;;;;;;5042115;28;20471;-74
2022/04/15 00:08:36;;;;;;;3.22;2.60;;;;;;;;;;5029303;28;20103;-74
2022/04/15 00:11:02;;;;;;;3.15;2.63;;;;;;;;;;5042831;28;20419;-74
2022/04/15 00:13:31;;;;;;;5.15;2.50;;;;;;;;;;5044865;28;20033;-73
2022/04/15 00:15:57;;;;;;;3.15;2.42;;;;;;;;;;5048191;28;20071;-74
2022/04/15 00:18:24;;;;;;;3.35;2.30;;;;;;;;;;5046760;28;20410;-73
2022/04/15 00:20:52;;;;;;;4.80;2.30;;;;;;;;;;5046348;28;20025;-74
2022/04/15 00:23:18;;;;;;;4.30;2.35;;;;;;;;;;5045865;28;20586;-74
2022/04/15 00:25:44;;;;;;;3.35;2.50;;;;;;;;;;5042179;28;20510;-74
2022/04/15 00:28:11;;;;;;;4.50;2.50;;;;;;;;;;5029292;28;20086;-74
2022/04/15 00:30:37;;;;;;;3.20;2.28;;;;;;;;;;5046736;28;20489;-74
2022/04/15 00:33:03;;;;;;;3.00;2.65;;;;;;;;;;5047292;28;20024;-75
2022/04/15 00:35:29;;;;;;;3.65;2.50;;;;;;;;;;5048063;28;20616;-74
2022/04/15 00:37:55;;;;;;;4.65;3.22;;;;;;;;;;5032143;28;20029;-74
2022/04/15 00:40:24;;;;;;;3.67;2.95;;;;;;;;;;5047052;28;20477;-74
2022/04/15 00:42:50;;;;;;;3.80;3.17;;;;;;;;;;5047695;28;20025;-74
2022/04/15 00:45:16;;;;;;;4.60;2.78;;;;;;;;;;5048982;28;20478;-73
2022/04/15 00:47:49;;;;;;;3.95;2.88;;;;;;;;;;5046031;28;20493;-75
2022/04/15 00:50:16;;;;;;;4.53;2.60;;;;;;;;;;5042803;28;20082;-73
2022/04/15 00:52:46;;;;;;;3.80;2.70;;;;;;;;;;5046799;28;20484;-75
2022/04/15 00:55:13;;;;;;;4.20;2.60;;;;;;;;;;5044981;28;20022;-74
2022/04/15 00:57:49;;;;;;;3.72;2.65;;;;;;;;;;5044132;28;20036;-74
2022/04/15 01:00:16;;;;;;;2.72;2.38;;;;;;;;;;5045217;28;20023;-73
2022/04/15 01:02:42;;;;;;;4.78;2.80;;;;;;;;;;5043152;28;20020;-73
2022/04/15 01:05:09;;;;;;;4.38;3.08;;;;;;;;;;5046854;28;20459;-74
2022/04/15 01:07:56;;;;;;;4.30;2.70;;;;;;;;;;5042262;28;20076;-73
2022/04/15 01:10:22;;;;;;;3.83;2.55;;;;;;;;;;5042172;28;20512;-73
2022/04/15 01:12:53;;;;;;;4.78;2.53;;;;;;;;;;5046898;28;20029;-73
2022/04/15 01:15:19;;;;;;;3.38;2.50;;;;;;;;;;5043735;28;20079;-74
2022/04/15 01:17:46;;;;;;;3.90;2.40;;;;;;;;;;5044178;28;20025;-74
2022/04/15 01:20:12;;;;;;;4.40;2.90;;;;;;;;;;5045328;28;20029;-73
2022/04/15 01:22:40;;;;;;;2.47;2.17;;;;;;;;;;5043741;28;20483;-74
2022/04/15 01:25:07;;;;;;;4.20;2.92;;;;;;;;;;5046047;28;20036;-74
2022/04/15 01:27:34;;;;;;;3.78;2.40;;;;;;;;;;5046151;28;20368;-74
2022/04/15 01:30:00;;;;;;;3.20;2.42;;;;;;;;;;5042744;28;20032;-73
2022/04/15 01:32:26;;;;;;;4.28;2.72;;;;;;;;;;5046522;28;20033;-75
2022/04/15 01:34:53;;;;;;;4.30;2.40;;;;;;;;;;5049285;28;20032;-74
2022/04/15 01:37:20;;;;;;;5.90;2.70;;;;;;;;;;5049192;28;20037;-73
2022/04/15 01:39:49;;;;;;;3.15;2.42;;;;;;;;;;5026690;28;20116;-74
2022/04/15 01:42:16;;;;;;;2.97;2.60;;;;;;;;;;5047992;28;20032;-74
2022/04/15 01:44:42;;;;;;;3.53;2.72;;;;;;;;;;5043892;28;20025;-73
2022/04/15 01:47:09;;;;;;;4.60;2.53;;;;;;;;;;5048754;28;20043;-75
2022/04/15 01:49:35;;;;;;;5.07;2.58;;;;;;;;;;5050536;28;20029;-73
2022/04/15 01:52:01;;;;;;;4.38;2.40;;;;;;;;;;5047680;28;20459;-74
2022/04/15 01:54:28;;;;;;;3.85;2.33;;;;;;;;;;5049342;28;20100;-74
2022/04/15 01:56:54;;;;;;;5.65;2.92;;;;;;;;;;5046273;28;20076;-73
2022/04/15 01:59:20;;;;;;;3.50;3.05;;;;;;;;;;5043266;28;20025;-73
2022/04/15 02:01:46;;;;;;;4.07;2.60;;;;;;;;;;5047254;28;20044;-74
2022/04/15 02:04:12;;;;;;;5.03;4.05;;;;;;;;;;5047686;28;20027;-74
2022/04/15 02:06:38;;;;;;;6.00;3.50;;;;;;;;;;5045787;28;20041;-74
2022/04/15 02:09:04;;;;;;;4.45;2.67;;;;;;;;;;5050973;28;20028;-74
2022/04/15 02:11:31;;;;;;;5.82;3.47;;;;;;;;;;5049137;28;20061;-74
2022/04/15 02:13:57;;;;;;;4.30;2.15;;;;;;;;;;5047253;28;20421;-73
2022/04/15 02:16:23;;;;;;;2.50;2.30;;;;;;;;;;5048754;28;20040;-73
2022/04/15 02:18:49;;;;;;;3.08;2.78;;;;;;;;;;5046831;28;20033;-74
2022/04/15 02:21:15;;;;;;;4.28;2.42;;;;;;;;;;5046747;28;20025;-74
2022/04/15 02:23:41;;;;;;;3.33;2.33;;;;;;;;;;5047965;28;20033;-73
2022/04/15 02:26:07;;;;;;;4.40;2.20;;;;;;;;;;5049840;28;20479;-73
2022/04/15 02:28:33;;;;;;;3.13;2.45;;;;;;;;;;5046957;28;20120;-73
2022/04/15 02:30:59;;;;;;;4.93;2.30;;;;;;;;;;5045947;28;20037;-74
2022/04/15 02:33:25;;;;;;;2.42;2.08;;;;;;;;;;5028537;28;20029;-74
2022/04/15 02:35:51;;;;;;;2.90;2.28;;;;;;;;;;5045333;28;20534;-74
2022/04/15 02:38:17;;;;;;;2.92;2.40;;;;;;;;;;5046410;28;20021;-74
2022/04/15 02:40:44;;;;;;;2.97;2.50;;;;;;;;;;5047954;28;20036;-74
2022/04/15 02:43:11;;;;;;;3.65;2.67;;;;;;;;;;5046364;28;20539;-73
2022/04/15 02:45:37;;;;;;;3.55;2.20;;;;;;;;;;5047648;28;20048;-74
2022/04/15 02:48:04;;;;;;;3.35;2.50;;;;;;;;;;5048599;28;20105;-74
2022/04/15 02:50:30;;;;;;;3.55;2.85;;;;;;;;;;5047193;28;20033;-74
2022/04/15 02:52:58;;;;;;;2.55;2.35;;;;;;;;;;5044495;28;20025;-73
2022/04/15 02:55:25;;;;;;;3.70;2.30;;;;;;;;;;5048538;28;20033;-74
2022/04/15 02:57:51;;;;;;;2.85;2.53;;;;;;;;;;5047623;28;20132;-74
2022/04/15 03:00:17;;;;;;;3.90;2.65;;;;;;;;;;5049501;28;20036;-74
2022/04/15 03:02:43;;;;;;;3.20;2.30;;;;;;;;;;5048045;28;20395;-73
2022/04/15 03:05:09;;;;;;;3.83;2.58;;;;;;;;;;5048630;28;20022;-74
2022/04/15 03:07:36;;;;;;;3.40;2.65;;;;;;;;;;5048623;28;20053;-74
2022/04/15 03:10:02;;;;;;;3.45;2.70;;;;;;;;;;5047155;28;20025;-74
2022/04/15 03:12:28;;;;;;;3.85;2.53;;;;;;;;;;5044012;28;20773;-73
2022/04/15 03:14:54;;;;;;;3.55;2.65;;;;;;;;;;5048731;28;20037;-73
2022/04/15 03:17:20;;;;;;;3.72;2.63;;;;;;;;;;5045443;28;20106;-73
2022/04/15 03:19:46;;;;;;;3.55;2.65;;;;;;;;;;5049100;28;20029;-74
2022/04/15 03:22:12;;;;;;;5.07;2.72;;;;;;;;;;5042756;28;20025;-74
2022/04/15 03:24:38;;;;;;;3.05;2.65;;;;;;;;;;5046145;28;20084;-73
2022/04/15 03:27:04;;;;;;;7.32;2.65;;;;;;;;;;5047483;28;20429;-74
2022/04/15 03:29:31;;;;;;;3.15;2.30;;;;;;;;;;5052065;28;20103;-74
2022/04/15 03:31:57;;;;;;;3.88;2.30;;;;;;;;;;5047931;28;20111;-74
2022/04/15 03:34:23;;;;;;;3.90;2.65;;;;;;;;;;5048699;28;20040;-74
2022/04/15 03:36:49;;;;;;;3.85;2.40;;;;;;;;;;5045638;28;20061;-74
2022/04/15 03:39:15;;;;;;;2.75;2.50;;;;;;;;;;5028721;28;20486;-74
2022/04/15 03:41:41;;;;;;;3.58;2.67;;;;;;;;;;5044563;28;20028;-74
2022/04/15 03:44:07;;;;;;;3.00;2.50;;;;;;;;;;5049020;28;20025;-74
2022/04/15 03:46:34;;;;;;;2.50;2.20;;;;;;;;;;5028801;28;20106;-75
2022/04/15 03:49:00;;;;;;;2.63;2.30;;;;;;;;;;5047828;28;20044;-73
2022/04/15 03:51:27;;;;;;;2.88;2.33;;;;;;;;;;5029544;28;20109;-74
2022/04/15 03:53:53;;;;;;;3.00;2.50;;;;;;;;;;5047838;28;20064;-74
2022/04/15 03:56:19;;;;;;;3.35;2.30;;;;;;;;;;5047030;28;20082;-74
2022/04/15 03:58:45;;;;;;;5.32;3.45;;;;;;;;;;5045726;28;20053;-74
2022/04/15 04:01:11;;;;;;;2.60;2.20;;;;;;;;;;5045406;28;20398;-74
2022/04/15 04:03:37;;;;;;;3.13;2.40;;;;;;;;;;5049144;28;20060;-76
2022/04/15 04:06:03;;;;;;;4.47;2.95;;;;;;;;;;5033178;28;20031;-74
2022/04/15 04:08:29;;;;;;;2.53;2.33;;;;;;;;;;5047104;28;20049;-74
2022/04/15 04:10:55;;;;;;;3.72;2.30;;;;;;;;;;5049636;28;20163;-74
2022/04/15 04:13:22;;;;;;;2.72;2.13;;;;;;;;;;5047260;28;20036;-74
2022/04/15 04:15:49;;;;;;;3.17;2.17;;;;;;;;;;5046376;28;20044;-74
2022/04/15 04:18:17;;;;;;;2.97;2.00;;;;;;;;;;5045261;28;20025;-74
2022/04/15 04:20:44;;;;;;;2.65;2.00;;;;;;;;;;5041494;28;20842;-75
2022/04/15 04:23:10;;;;;;;2.47;1.95;;;;;;;;;;5048418;28;20025;-74
2022/04/15 04:25:36;;;;;;;2.80;2.10;;;;;;;;;;5046078;28;20036;-74
2022/04/15 04:28:02;;;;;;;3.05;2.55;;;;;;;;;;5046761;28;20033;-76
2022/04/15 04:30:28;;;;;;;2.28;1.90;;;;;;;;;;5044247;28;20045;-74
2022/04/15 04:32:54;;;;;;;2.45;1.80;;;;;;;;;;5027080;28;20116;-75
2022/04/15 04:35:21;;;;;;;1.70;1.60;;;;;;;;;;5045136;28;20479;-75
2022/04/15 04:37:47;;;;;;;2.33;2.13;;;;;;;;;;5045343;28;20118;-74
2022/04/15 04:40:14;;;;;;;2.83;2.10;;;;;;;;;;5042980;28;20025;-75
2022/04/15 04:42:40;;;;;;;2.10;1.80;;;;;;;;;;5043300;28;20053;-75
2022/04/15 04:45:07;;;;;;;3.35;2.00;;;;;;;;;;5045234;28;20117;-74
2022/04/15 04:47:33;;;;;;;2.25;2.00;;;;;;;;;;5023015;28;20557;-75
2022/04/15 04:50:01;;;;;;;2.53;1.80;;;;;;;;;;5045836;28;20033;-74
2022/04/15 04:52:27;;;;;;;2.50;1.92;;;;;;;;;;5042863;28;20483;-75
2022/04/15 04:54:53;;;;;;;3.05;1.95;;;;;;;;;;5048272;28;20116;-75
2022/04/15 04:57:19;;;;;;;1.90;1.77;;;;;;;;;;5039016;28;20091;-74
2022/04/15 04:59:45;;;;;;;1.52;1.42;;;;;;;;;;5044427;28;20104;-73
2022/04/15 05:02:12;;;;;;;1.77;1.50;;;;;;;;;;5043572;28;20025;-74
2022/04/15 05:04:40;;;;;;;1.52;1.42;;;;;;;;;;5045799;28;20493;-73
2022/04/15 05:07:06;;;;;;;2.15;1.60;;;;;;;;;;5027500;28;20048;-74
2022/04/15 05:09:32;;;;;;;1.40;1.30;;;;;;;;;;5049506;28;20044;-75
2022/04/15 05:11:58;;;;;;;1.73;1.63;;;;;;;;;;5049742;28;20519;-74
2022/04/15 05:14:24;;;;;;;1.50;1.30;;;;;;;;;;5047819;28;20045;-74
2022/04/15 05:16:50;;;;;;;1.58;1.40;;;;;;;;;;5052876;28;20096;-74
2022/04/15 05:19:16;;;;;;;1.52;1.42;;;;;;;;;;5049390;28;20021;-73
2022/04/15 05:21:42;;;;;;;1.45;1.38;;;;;;;;;;5045162;28;20632;-73
2022/04/15 05:24:09;;;;;;;1.50;1.40;;;;;;;;;;5049236;28;20033;-73
2022/04/15 05:26:36;;;;;;;1.65;1.30;;;;;;;;;;5048117;28;20501;-74
2022/04/15 05:29:02;;;;;;;1.10;1.10;;;;;;;;;;5048872;28;20060;-75
2022/04/15 05:31:28;;;;;;;1.98;1.48;;;;;;;;;;5045923;28;20437;-74
2022/04/15 05:33:54;;;;;;;1.30;1.20;;;;;;;;;;5032621;28;20029;-74
2022/04/15 05:36:20;;;;;;;1.65;1.30;;;;;;;;;;5047187;28;20036;-74
2022/04/15 05:38:46;;;;;;;1.42;1.33;;;;;;;;;;5049991;28;20022;-75
2022/04/15 05:41:12;;;;;;;1.50;1.40;;;;;;;;;;5045648;28;20033;-74
2022/04/15 05:43:38;;;;;;;1.25;1.15;;;;;;;;;;5050123;28;20078;-74
2022/04/15 05:46:05;;;;;;;1.50;1.40;;;;;;;;;;5050502;28;20104;-74
2022/04/15 05:48:31;;;;;;;1.73;1.30;;;;;;;;;;5050088;28;20489;-74
2022/04/15 05:50:58;;;;;;;1.45;1.35;;;;;;;;;;5048826;28;20211;-74
2022/04/15 05:53:24;;;;;;;1.50;1.40;;;;;;;;;;5049988;28;20750;-75
2022/04/15 05:55:50;;;;;;;1.40;1.30;;;;;;;;;;5048905;28;20459;-74
2022/04/15 05:58:16;;;;;;;1.40;1.30;;;;;;;;;;5049758;28;20025;-74
2022/04/15 06:00:42;;;;;;;1.60;1.50;;;;;;;;;;5046178;28;20025;-74
2022/04/15 06:03:09;;;;;;;1.60;1.50;;;;;;;;;;5049309;28;20125;-75
2022/04/15 06:05:35;;;;;;;1.48;1.40;;;;;;;;;;5047782;28;20036;-74
2022/04/15 06:08:01;;;;;;;1.40;1.30;;;;;;;;;;5047465;28;20499;-76
2022/04/15 06:10:27;;;;;;;1.30;1.30;;;;;;;;;;5046138;28;20041;-74
2022/04/15 06:15:41;;;;;;;1.48;1.38;;;;;;;;;;5040072;28;20553;-75
2022/04/15 06:18:08;;;;;;;2.10;1.25;;;;;;;;;;5048966;28;20018;-74
2022/04/15 06:20:34;;;;;;;1.40;1.30;;;;;;;;;;5029293;28;20056;-74
2022/04/15 06:23:01;;;;;;;1.48;1.38;;;;;;;;;;5049111;28;20469;-74
2022/04/15 06:25:27;;;;;;;1.40;1.30;;;;;;;;;;5051766;28;20074;-73
2022/04/15 06:27:54;;;;;;;1.45;1.35;;;;;;;;;;5048042;28;20029;-74
2022/04/15 06:30:21;;;;;;;1.42;1.33;;;;;;;;;;5044279;28;20024;-74
2022/04/15 06:32:47;;;;;;;1.67;1.42;;;;;;;;;;5046047;28;20021;-74
2022/04/15 06:35:13;;;;;;;1.20;1.20;;;;;;;;;;5045218;28;20036;-74
2022/04/15 06:37:40;;;;;;;1.40;1.30;;;;;;;;;;5030683;28;20128;-73
2022/04/15 06:40:06;;;;;;;1.40;1.30;;;;;;;;;;5047046;28;20084;-73
2022/04/15 06:42:32;;;;;;;1.70;1.50;;;;;;;;;;5046076;28;20021;-74
2022/04/15 06:44:59;;;;;;;1.33;1.30;;;;;;;;;;5045389;28;20025;-74
2022/04/15 06:47:25;;;;;;;1.45;1.35;;;;;;;;;;5033247;28;20570;-74
2022/04/15 06:49:51;;;;;;;1.67;1.27;;;;;;;;;;5045245;28;20119;-74
2022/04/15 06:52:20;;;;;;;1.38;1.30;;;;;;;;;;5045885;28;20593;-74
2022/04/15 06:54:46;;;;;;;1.50;1.30;;;;;;;;;;5048765;28;20037;-74
2022/04/15 06:57:13;;;;;;;1.60;1.50;;;;;;;;;;5048342;28;20040;-74
2022/04/15 06:59:39;;;;;;;1.60;1.50;;;;;;;;;;5048112;28;20037;-74
2022/04/15 07:02:05;;;;;;;1.40;1.30;;;;;;;;;;5047006;28;20137;-74
2022/04/15 07:04:32;;;;;;;1.75;1.30;;;;;;;;;;5048911;28;20475;-74
2022/04/15 07:06:59;;;;;;;1.20;1.20;;;;;;;;;;5029841;28;20497;-75
2022/04/15 07:09:25;;;;;;;2.25;1.42;;;;;;;;;;5045673;28;20056;-74
2022/04/15 07:11:51;;;;;;;1.70;1.60;;;;;;;;;;5045492;28;20078;-74
2022/04/15 07:14:18;;;;;;;1.92;1.30;;;;;;;;;;5047053;28;20021;-73
2022/04/15 07:16:44;;;;;;;1.60;1.50;;;;;;;;;;5031015;28;20037;-74
2022/04/15 07:19:10;;;;;;;1.65;1.30;;;;;;;;;;5044684;28;20545;-73
2022/04/15 07:21:36;;;;;;;1.40;1.30;;;;;;;;;;5047024;28;20028;-74
2022/04/15 07:24:03;;;;;;;1.55;1.40;;;;;;;;;;5047800;28;20029;-74
2022/04/15 07:26:30;;;;;;;2.17;1.13;;;;;;;;;;5046677;28;20028;-73
2022/04/15 07:28:56;;;;;;;1.33;1.23;;;;;;;;;;5045403;28;20143;-74
2022/04/15 07:31:22;;;;;;;2.25;2.05;;;;;;;;;;5048927;28;20028;-75
2022/04/15 07:33:49;;;;;;;1.35;1.30;;;;;;;;;;5048071;28;20033;-74
2022/04/15 07:39:00;;;;;;;1.50;1.17;;;;;;;;;;5048740;28;20033;-73
2022/04/15 07:41:26;;;;;;;1.10;1.10;;;;;;;;;;5048663;28;20025;-74
2022/04/15 07:43:52;;;;;;;1.00;1.00;;;;;;;;;;5029812;28;20458;-74
2022/04/15 07:46:18;;;;;;;1.80;1.45;;;;;;;;;;5046860;28;20473;-74
2022/04/15 07:48:44;;;;;;;1.92;1.10;;;;;;;;;;5048472;28;20498;-73
2022/04/15 07:51:10;;;;;;;1.05;1.05;;;;;;;;;;5047099;28;20029;-74
2022/04/15 07:53:37;;;;;;;0.90;0.90;;;;;;;;;;5047150;28;20065;-75
2022/04/15 07:56:03;;;;;;;0.90;0.90;;;;;;;;;;5026270;28;20820;-74
2022/04/15 07:58:29;;;;;;;1.10;1.10;;;;;;;;;;5047812;28;20133;-74
2022/04/15 08:00:55;;;;;;;1.60;1.45;;;;;;;;;;5046983;28;20021;-74
2022/04/15 08:03:21;;;;;;;1.67;1.30;;;;;;;;;;5049250;28;20100;-74
2022/04/15 08:05:48;;;;;;;2.13;1.30;;;;;;;;;;5045598;28;20094;-75
2022/04/15 08:08:14;;;;;;;1.35;1.13;;;;;;;;;;5044684;28;20072;-74
2022/04/15 08:10:40;;;;;;;1.40;1.30;;;;;;;;;;5044475;28;20067;-74
2022/04/15 08:13:07;;;;;;;1.83;1.40;;;;;;;;;;5047206;28;20542;-74
2022/04/15 08:15:33;;;;;;;1.55;1.45;;;;;;;;;;5045645;28;20029;-73
2022/04/15 08:18:00;;;;;;;1.50;1.40;;;;;;;;;;5048230;28;20029;-74
2022/04/15 08:20:26;;;;;;;1.73;1.55;;;;;;;;;;5047402;28;20032;-75
2022/04/15 08:22:52;;;;;;;3.50;1.70;;;;;;;;;;5047437;28;20021;-73
2022/04/15 08:25:19;;;;;;;2.22;2.03;;;;;;;;;;5028574;28;20051;-74
2022/04/15 08:27:45;;;;;;;2.88;1.70;;;;;;;;;;5049214;28;20039;-73
2022/04/15 08:30:11;;;;;;;2.55;1.60;;;;;;;;;;5047962;28;20038;-75
2022/04/15 08:32:38;;;;;;;1.35;1.27;;;;;;;;;;5052020;28;20036;-75
2022/04/15 08:35:04;;;;;;;1.70;1.60;;;;;;;;;;5051764;28;20747;-74
2022/04/15 08:37:31;;;;;;;1.77;1.67;;;;;;;;;;5046824;28;20033;-74
2022/04/15 08:39:57;;;;;;;1.95;1.42;;;;;;;;;;5041591;28;20030;-74
2022/04/15 08:42:23;;;;;;;2.42;1.50;;;;;;;;;;5031086;28;20100;-75
2022/04/15 08:44:53;;;;;;;1.42;1.33;;;;;;;;;;5052966;28;20391;-74
2022/04/15 08:47:20;;;;;;;2.95;2.42;;;;;;;;;;5054884;28;20035;-74
2022/04/15 08:49:46;;;;;;;2.17;1.63;;;;;;;;;;5050226;28;20016;-74
2022/04/15 08:52:15;;;;;;;2.45;2.25;;;;;;;;;;5055708;28;20094;-74
2022/04/15 08:54:41;;;;;;;7.50;2.22;;;;;;;;;;5051126;28;20025;-73
2022/04/15 08:57:07;;;;;;;1.60;1.50;;;;;;;;;;5051856;28;20559;-74
2022/04/15 08:59:33;;;;;;;1.88;1.58;;;;;;;;;;5054080;28;20041;-74
2022/04/15 09:02:00;;;;;;;2.53;1.90;;;;;;;;;;5054677;28;20655;-74
2022/04/15 09:04:26;;;;;;;1.33;1.23;;;;;;;;;;5051875;28;20037;-74
2022/04/15 09:06:59;;;;;;;1.38;1.27;;;;;;;;;;5054302;28;20041;-74
2022/04/15 09:09:29;;;;;;;2.97;1.48;;;;;;;;;;5054167;28;20021;-73
2022/04/15 09:11:58;;;;;;;1.50;1.40;;;;;;;;;;5050487;28;20021;-74
2022/04/15 09:14:25;;;;;;;2.45;1.67;;;;;;;;;;5054372;28;20083;-74
2022/04/15 09:16:51;;;;;;;1.55;1.45;;;;;;;;;;5050687;28;20083;-74
2022/04/15 09:19:18;;;;;;;1.40;1.30;;;;;;;;;;5054185;28;20494;-74
2022/04/15 09:21:55;;;;;;;1.70;1.38;;;;;;;;;;5053509;28;20858;-73
2022/04/15 09:24:33;;;;;;;1.67;1.40;;;;;;;;;;5054127;28;20478;-74
2022/04/15 09:27:03;;;;;;;2.95;1.42;;;;;;;;;;5053769;28;20037;-74
2022/04/15 09:29:36;;;;;;;1.65;1.55;;;;;;;;;;5053741;28;20052;-73
2022/04/15 09:32:09;;;;;;;1.50;1.40;;;;;;;;;;5053395;28;20032;-74
2022/04/15 09:35:05;;;;;;;2.83;1.45;;;;;;;;;;5053353;28;20033;-74
2022/04/15 09:37:31;;;;;;;1.40;1.30;;;;;;;;;;5016410;28;20044;-73
2022/04/15 09:40:05;;;;;;;2.33;1.52;;;;;;;;;;5053184;28;20057;-74
2022/04/15 09:42:33;;;;;;;1.48;1.38;;;;;;;;;;5053670;28;20033;-74
2022/04/15 09:45:12;;;;;;;1.60;1.50;;;;;;;;;;5049439;28;20103;-74
2022/04/15 09:47:39;;;;;;;1.38;1.27;;;;;;;;;;5047439;28;20035;-74
2022/04/15 09:50:06;;;;;;;1.50;1.40;;;;;;;;;;5044107;28;20025;-74
2022/04/15 09:52:32;;;;;;;1.98;1.33;;;;;;;;;;5051403;28;20577;-75
2022/04/15 09:55:02;;;;;;;2.30;1.48;;;;;;;;;;5052411;28;20056;-73
2022/04/15 09:57:33;;;;;;;1.77;1.30;;;;;;;;;;5026726;28;20139;-74
2022/04/15 10:00:02;;;;;;;1.60;1.50;;;;;;;;;;5048360;28;20025;-74
2022/04/15 10:02:30;;;;;;;2.50;1.80;;;;;;;;;;5049492;28;20025;-74
2022/04/15 10:04:56;;;;;;;1.60;1.20;;;;;;;;;;5050276;28;20032;-75
2022/04/15 10:07:23;;;;;;;2.88;1.67;;;;;;;;;;5049811;28;20515;-74
2022/04/15 10:09:49;;;;;;;1.40;1.30;;;;;;;;;;5049782;28;20041;-74
2022/04/15 10:12:15;;;;;;;1.40;1.30;;;;;;;;;;5030112;28;20029;-74
2022/04/15 10:14:42;;;;;;;1.98;1.38;;;;;;;;;;5049870;28;20474;-73
2022/04/15 10:17:08;;;;;;;2.15;1.77;;;;;;;;;;5051472;28;20029;-74
2022/04/15 10:19:34;;;;;;;3.00;1.50;;;;;;;;;;5047491;28;20029;-74
2022/04/15 10:22:01;;;;;;;3.50;1.83;;;;;;;;;;5048657;28;20021;-74
2022/04/15 10:24:27;;;;;;;1.52;1.42;;;;;;;;;;5046906;28;20036;-75
2022/04/15 10:27:04;;;;;;;2.22;1.50;;;;;;;;;;5033223;28;20788;-76
2022/04/15 10:29:31;;;;;;;2.10;1.63;;;;;;;;;;5048481;28;20037;-74
2022/04/15 10:31:57;;;;;;;2.13;1.55;;;;;;;;;;5046208;28;20038;-74
2022/04/15 10:34:23;;;;;;;3.10;1.70;;;;;;;;;;5046152;28;20060;-74
2022/04/15 10:36:53;;;;;;;2.38;1.67;;;;;;;;;;5047975;28;20554;-74
2022/04/15 10:39:22;;;;;;;2.22;1.77;;;;;;;;;;5048724;28;20424;-74
2022/04/15 10:41:48;;;;;;;2.03;1.80;;;;;;;;;;5047667;28;20045;-74
2022/04/15 10:44:33;;;;;;;1.73;1.63;;;;;;;;;;5046386;28;20029;-75
2022/04/15 10:47:00;;;;;;;1.88;1.75;;;;;;;;;;5031553;28;20428;-74
2022/04/15 10:49:30;;;;;;;1.85;1.75;;;;;;;;;;5048837;28;20379;-74
2022/04/15 10:52:00;;;;;;;3.55;1.65;;;;;;;;;;5045847;28;20085;-74
2022/04/15 10:54:40;;;;;;;1.88;1.60;;;;;;;;;;5047738;28;20029;-74
2022/04/15 10:57:09;;;;;;;1.60;1.50;;;;;;;;;;5049602;28;20025;-74
2022/04/15 11:02:22;;;;;;;2.63;1.70;;;;;;;;;;5046264;28;20040;-74
2022/04/15 11:04:49;;;;;;;2.42;1.73;;;;;;;;;;5049394;28;20108;-75
2022/04/15 11:07:29;;;;;;;5.07;2.03;;;;;;;;;;5046117;28;20081;-74
2022/04/15 11:09:56;;;;;;;2.97;1.83;;;;;;;;;;5047803;28;20049;-74
2022/04/15 11:12:37;;;;;;;3.58;1.98;;;;;;;;;;5030815;28;20025;-74
2022/04/15 11:15:05;;;;;;;3.35;1.67;;;;;;;;;;5047795;28;20028;-73
2022/04/15 11:17:42;;;;;;;2.78;1.80;;;;;;;;;;5048154;28;20087;-74
2022/04/15 11:20:09;;;;;;;2.08;1.80;;;;;;;;;;5049009;28;20071;-74
2022/04/15 11:22:39;;;;;;;1.95;1.60;;;;;;;;;;5043563;28;20032;-75
2022/04/15 11:25:06;;;;;;;1.98;1.80;;;;;;;;;;5028752;28;20035;-73
2022/04/15 11:27:34;;;;;;;1.88;1.63;;;;;;;;;;5046775;28;20079;-74
2022/04/15 11:30:04;;;;;;;3.30;1.90;;;;;;;;;;5027865;28;20051;-74
2022/04/15 11:32:31;;;;;;;2.63;1.63;;;;;;;;;;5044836;28;20043;-74
2022/04/15 11:35:03;;;;;;;2.15;1.95;;;;;;;;;;5047525;28;20028;-74
2022/04/15 11:37:29;;;;;;;1.92;1.77;;;;;;;;;;5044649;28;20033;-73
2022/04/15 11:39:56;;;;;;;2.10;1.90;;;;;;;;;;5048059;28;20446;-73
2022/04/15 11:42:22;;;;;;;2.53;1.80;;;;;;;;;;5048948;28;20025;-74
2022/04/15 11:44:48;;;;;;;1.70;1.60;;;;;;;;;;5048976;28;20045;-74
2022/04/15 11:47:21;;;;;;;1.73;1.63;;;;;;;;;;5051761;28;20557;-74
2022/04/15 11:49:51;;;;;;;1.70;1.60;;;;;;;;;;5048273;28;20534;-74
2022/04/15 11:52:21;;;;;;;2.20;1.95;;;;;;;;;;5045491;28;20021;-74
2022/04/15 11:54:47;;;;;;;1.70;1.60;;;;;;;;;;5047142;28;20036;-73
2022/04/15 11:57:13;;;;;;;1.98;1.77;;;;;;;;;;5042318;28;20614;-74
2022/04/15 11:59:46;;;;;;;2.00;1.80;;;;;;;;;;5049146;28;20100;-75
2022/04/15 12:02:14;;;;;;;2.70;1.90;;;;;;;;;;5046187;28;20029;-75
2022/04/15 12:04:53;;;;;;;2.38;2.10;;;;;;;;;;5048371;28;20060;-74
2022/04/15 12:07:20;;;;;;;1.83;1.73;;;;;;;;;;5046811;28;20060;-74
2022/04/15 12:09:47;;;;;;;2.22;1.70;;;;;;;;;;5045839;28;20025;-74
2022/04/15 12:12:13;;;;;;;2.20;1.98;;;;;;;;;;5047647;28;20029;-74
2022/04/15 12:14:42;;;;;;;4.28;2.58;;;;;;;;;;5045525;28;20629;-74
2022/04/15 12:17:09;;;;;;;2.30;2.10;;;;;;;;;;5046383;28;20027;-73
2022/04/15 12:19:36;;;;;;;2.47;2.28;;;;;;;;;;5046881;28;20151;-75
2022/04/15 12:22:02;;;;;;;2.40;2.20;;;;;;;;;;5047991;28;20048;-75
2022/04/15 12:24:31;;;;;;;2.17;1.98;;;;;;;;;;5047888;28;20024;-76
2022/04/15 12:27:01;;;;;;;2.78;1.75;;;;;;;;;;5045298;28;20980;-75
2022/04/15 12:32:23;;;;;;;2.00;1.80;;;;;;;;;;5045382;28;20048;-74
2022/04/15 12:35:09;;;;;;;2.20;2.00;;;;;;;;;;5046391;28;20091;-74
2022/04/15 12:37:44;;;;;;;1.70;1.60;;;;;;;;;;5037694;28;20029;-75
2022/04/15 12:40:29;;;;;;;3.80;1.98;;;;;;;;;;5044449;28;20025;-75
2022/04/15 12:42:56;;;;;;;2.13;1.92;;;;;;;;;;5046075;28;20017;-76
2022/04/15 12:45:22;;;;;;;2.47;1.90;;;;;;;;;;5046620;28;20029;-75
2022/04/15 12:47:58;;;;;;;1.98;1.85;;;;;;;;;;5045163;28;20028;-75
2022/04/15 12:50:30;;;;;;;1.95;1.77;;;;;;;;;;5047374;28;20060;-76
2022/04/15 12:52:56;;;;;;;3.35;2.00;;;;;;;;;;5041335;28;20126;-76
2022/04/15 12:55:26;;;;;;;1.80;1.70;;;;;;;;;;5045407;28;20029;-76
2022/04/15 12:57:52;;;;;;;1.70;1.60;;;;;;;;;;5043435;28;20110;-76
2022/04/15 13:00:18;;;;;;;1.80;1.70;;;;;;;;;;5046737;28;20505;-77
2022/04/15 13:02:44;;;;;;;2.00;1.80;;;;;;;;;;5046206;28;20039;-75
2022/04/15 13:05:11;;;;;;;2.30;1.77;;;;;;;;;;5043088;28;20037;-76
2022/04/15 13:07:38;;;;;;;3.97;2.15;;;;;;;;;;5045707;28;20053;-76
2022/04/15 13:10:05;;;;;;;1.77;1.67;;;;;;;;;;5047160;28;20025;-76
2022/04/15 13:12:31;;;;;;;1.77;1.52;;;;;;;;;;5046502;28;20079;-76
2022/04/15 13:14:57;;;;;;;1.48;1.38;;;;;;;;;;5041956;28;20064;-75
2022/04/15 13:17:23;;;;;;;1.88;1.70;;;;;;;;;;5044096;28;20032;-76
2022/04/15 13:19:50;;;;;;;1.80;1.50;;;;;;;;;;5046901;28;20075;-77
2022/04/15 13:22:16;;;;;;;2.75;1.83;;;;;;;;;;5043034;28;20101;-76
2022/04/15 13:24:43;;;;;;;1.58;1.48;;;;;;;;;;5046982;28;20028;-76
2022/04/15 13:27:09;;;;;;;1.50;1.40;;;;;;;;;;5046608;28;20118;-75
2022/04/15 13:29:36;;;;;;;1.50;1.40;;;;;;;;;;5045147;28;20521;-75
2022/04/15 13:32:04;;;;;;;1.50;1.40;;;;;;;;;;5050719;28;20519;-76
2022/04/15 13:34:34;;;;;;;2.03;1.60;;;;;;;;;;5050369;28;20032;-75
2022/04/15 13:37:01;;;;;;;2.55;1.40;;;;;;;;;;5050454;28;20125;-74
2022/04/15 13:39:28;;;;;;;1.60;1.50;;;;;;;;;;5046334;28;20061;-74
2022/04/15 13:41:54;;;;;;;1.67;1.58;;;;;;;;;;5047851;28;20021;-75
2022/04/15 13:44:20;;;;;;;1.70;1.30;;;;;;;;;;5043548;28;20056;-72
2022/04/15 13:46:46;;;;;;;3.45;1.60;;;;;;;;;;5046701;28;20414;-75
2022/04/15 13:49:12;;;;;;;1.60;1.50;;;;;;;;;;5047214;28;20080;-75
2022/04/15 13:51:38;;;;;;;1.50;1.38;;;;;;;;;;5025188;28;20025;-75
2022/04/15 13:56:49;;;;;;;1.58;1.48;;;;;;;;;;5037413;28;20194;-73
2022/04/15 13:59:15;;;;;;;1.70;1.60;;;;;;;;;;5041784;28;20025;-74
2022/04/15 14:01:44;;;;;;;1.80;1.58;;;;;;;;;;5040728;28;20044;-74
2022/04/15 14:04:16;;;;;;;2.05;1.88;;;;;;;;;;5039968;28;20025;-73
2022/04/15 14:06:52;;;;;;;1.80;1.70;;;;;;;;;;5041923;28;20262;-73
2022/04/15 14:09:21;;;;;;;1.80;1.70;;;;;;;;;;5039348;28;20048;-72
2022/04/15 14:11:48;;;;;;;2.53;2.00;;;;;;;;;;5036630;28;20040;-74
2022/04/15 14:14:15;;;;;;;2.03;1.83;;;;;;;;;;5039823;28;20117;-74
2022/04/15 14:16:42;;;;;;;1.80;1.70;;;;;;;;;;5040863;28;20024;-74
2022/04/15 14:19:11;;;;;;;3.35;2.50;;;;;;;;;;5041568;28;20565;-78
2022/04/15 14:21:37;;;;;;;3.50;2.83;;;;;;;;;;5041933;28;20086;-80
2022/04/15 14:24:04;;;;;;;2.65;2.10;;;;;;;;;;5043320;28;20740;-76
2022/04/15 14:26:32;;;;;;;1.80;1.70;;;;;;;;;;5040185;28;20120;-78
2022/04/15 14:28:59;;;;;;;2.38;2.10;;;;;;;;;;5040414;28;20025;-74
2022/04/15 14:31:25;;;;;;;2.00;1.70;;;;;;;;;;5040247;28;20075;-75
2022/04/15 14:33:55;;;;;;;1.60;1.50;;;;;;;;;;5041327;28;20138;-79
2022/04/15 14:36:22;;;;;;;2.08;1.70;;;;;;;;;;5042910;28;20025;-75
2022/04/15 14:38:49;;;;;;;2.10;1.90;;;;;;;;;;5040379;28;20051;-75
2022/04/15 14:41:16;;;;;;;1.63;1.50;;;;;;;;;;5039758;28;20033;-76
2022/04/15 14:43:43;;;;;;;1.80;1.70;;;;;;;;;;5040862;28;20040;-75
2022/04/15 14:46:10;;;;;;;1.83;1.70;;;;;;;;;;5043388;28;20569;-76
2022/04/15 14:48:38;;;;;;;1.77;1.67;;;;;;;;;;5043175;28;20033;-75
2022/04/15 14:51:05;;;;;;;1.92;1.70;;;;;;;;;;5042739;28;20119;-75
2022/04/15 14:53:32;;;;;;;1.85;1.60;;;;;;;;;;5045850;28;20044;-76
2022/04/15 14:55:59;;;;;;;2.55;1.83;;;;;;;;;;5024515;28;20033;-76
2022/04/15 14:58:26;;;;;;;2.10;1.90;;;;;;;;;;5042787;28;20111;-76